Time;durP1;ratioP1;P1;durP2;ratioP2;P2;SDS_P1;SDS_P2;PMS_P1;PMS_P2;Temp;Humidity;BMP_temperature;BMP_pressure;BME280_temperature;BME280_humidity;BME280_pressure;Samples;Min_cycle;Max_cycle;Signal;HPM_P1;HPM_P2
2021/05/10 00:01:37;;;;;;;4.20;2.23;;;20.40;99.90;;;;;;5029066;28;20285;-55
2021/05/10 00:04:05;;;;;;;2.07;1.87;;;20.40;99.90;;;;;;5030286;28;20243;-58
2021/05/10 00:06:33;;;;;;;2.00;1.70;;;20.40;99.90;;;;;;5029835;28;20290;-54
2021/05/10 00:09:02;;;;;;;2.00;1.77;;;20.30;99.90;;;;;;5029441;28;20286;-55
2021/05/10 00:11:31;;;;;;;2.57;1.70;;;20.30;99.90;;;;;;5028538;28;20324;-57
2021/05/10 00:13:58;;;;;;;3.03;1.77;;;20.30;99.90;;;;;;5029618;28;20303;-57
2021/05/10 00:16:26;;;;;;;3.33;1.70;;;20.20;99.90;;;;;;5028923;28;20248;-57
2021/05/10 00:18:53;;;;;;;1.67;1.53;;;20.20;99.90;;;;;;5029701;28;20244;-55
2021/05/10 00:21:22;;;;;;;3.30;1.80;;;20.20;99.90;;;;;;5028001;28;20245;-56
2021/05/10 00:23:49;;;;;;;2.07;1.70;;;20.20;99.90;;;;;;5029363;28;20303;-54
2021/05/10 00:26:16;;;;;;;2.90;1.70;;;20.20;99.90;;;;;;5029354;28;20239;-57
2021/05/10 00:28:44;;;;;;;2.40;1.87;;;20.10;99.90;;;;;;5029292;28;20603;-56
2021/05/10 00:31:11;;;;;;;2.43;1.80;;;20.10;99.90;;;;;;5027010;28;20247;-57
2021/05/10 00:33:38;;;;;;;3.97;2.00;;;20.10;99.90;;;;;;5026975;28;20290;-58
2021/05/10 00:36:06;;;;;;;2.93;1.60;;;20.10;99.90;;;;;;5029634;28;20778;-56
2021/05/10 00:38:34;;;;;;;2.00;1.77;;;20.00;99.90;;;;;;5029165;28;20243;-55
2021/05/10 00:41:01;;;;;;;1.77;1.63;;;20.00;99.90;;;;;;5028424;28;20240;-55
2021/05/10 00:43:29;;;;;;;2.77;1.60;;;20.00;99.90;;;;;;5044248;28;20240;-57
2021/05/10 00:45:56;;;;;;;2.43;1.67;;;19.90;99.90;;;;;;5029116;28;20627;-54
2021/05/10 00:48:23;;;;;;;2.20;1.60;;;19.90;99.90;;;;;;5029158;28;20708;-56
2021/05/10 00:50:51;;;;;;;2.63;1.80;;;19.80;99.90;;;;;;5028045;28;20221;-56
2021/05/10 00:53:18;;;;;;;3.00;1.57;;;19.80;99.90;;;;;;5028618;28;20655;-57
2021/05/10 00:55:46;;;;;;;3.93;1.83;;;19.70;99.90;;;;;;5028706;28;20249;-56
2021/05/10 00:58:14;;;;;;;2.70;1.70;;;19.70;99.90;;;;;;5028647;28;20240;-54
2021/05/10 01:00:42;;;;;;;2.53;1.90;;;19.70;99.90;;;;;;5027847;28;20311;-58
2021/05/10 01:03:10;;;;;;;2.87;1.80;;;19.60;99.90;;;;;;5028391;28;20311;-57
2021/05/10 01:05:38;;;;;;;2.17;1.83;;;19.60;99.90;;;;;;5028836;28;20224;-58
2021/05/10 01:08:06;;;;;;;1.70;1.60;;;19.50;99.90;;;;;;5028843;28;20256;-56
2021/05/10 01:10:34;;;;;;;4.93;1.80;;;19.50;99.90;;;;;;5028037;28;20250;-55
2021/05/10 01:13:03;;;;;;;2.03;1.83;;;19.50;99.90;;;;;;5028470;28;20236;-57
2021/05/10 01:15:31;;;;;;;2.17;1.80;;;19.50;99.90;;;;;;5028447;28;20700;-56
2021/05/10 01:17:58;;;;;;;4.20;1.80;;;19.40;99.90;;;;;;5028558;28;20243;-54
2021/05/10 01:20:28;;;;;;;2.70;1.90;;;19.40;99.90;;;;;;5027359;28;20251;-58
2021/05/10 01:22:57;;;;;;;3.37;1.90;;;19.40;99.90;;;;;;5027759;28;20245;-55
2021/05/10 01:25:28;;;;;;;2.83;1.53;;;19.40;99.90;;;;;;5028559;28;20285;-57
2021/05/10 01:27:57;;;;;;;3.20;1.77;;;19.40;99.90;;;;;;5023046;28;20628;-55
2021/05/10 01:30:30;;;;;;;1.73;1.60;;;19.40;99.90;;;;;;5024833;28;20281;-57
2021/05/10 01:32:59;;;;;;;2.47;1.70;;;19.40;99.90;;;;;;5027072;28;20236;-57
2021/05/10 01:35:29;;;;;;;2.47;1.70;;;19.40;99.90;;;;;;5027773;28;20772;-55
2021/05/10 01:37:58;;;;;;;1.77;1.67;;;19.40;99.90;;;;;;5028245;28;20231;-57
2021/05/10 01:40:28;;;;;;;3.97;1.67;;;19.40;99.90;;;;;;5027093;28;20253;-58
2021/05/10 01:42:56;;;;;;;3.70;1.67;;;19.40;99.90;;;;;;5028037;28;20684;-57
2021/05/10 01:45:24;;;;;;;3.67;1.70;;;19.40;99.90;;;;;;5027992;28;20730;-57
2021/05/10 01:47:58;;;;;;;3.47;1.90;;;19.40;99.90;;;;;;5027971;28;20246;-56
2021/05/10 01:50:26;;;;;;;2.57;1.60;;;19.40;99.90;;;;;;5027035;28;20243;-54
2021/05/10 01:52:53;;;;;;;2.13;1.70;;;19.40;99.90;;;;;;5027584;28;20255;-56
2021/05/10 01:55:28;;;;;;;2.20;1.60;;;19.40;99.90;;;;;;3789413;28;10023477;-57
2021/05/10 01:57:59;;;;;;;3.07;1.80;;;19.30;99.90;;;;;;2425451;28;10002037;-57
2021/05/10 02:00:30;;;;;;;2.57;1.40;;;19.40;99.90;;;;;;5026981;28;20973;-56
2021/05/10 02:03:01;;;;;;;1.70;1.60;;;19.40;99.90;;;;;;5027322;28;20285;-55
2021/05/10 02:05:29;;;;;;;3.50;1.87;;;19.40;99.90;;;;;;5027652;28;20587;-56
2021/05/10 02:07:58;;;;;;;2.07;1.70;;;19.40;99.90;;;;;;5027746;28;20231;-54
2021/05/10 02:10:30;;;;;;;2.03;1.43;;;19.40;99.90;;;;;;5026867;28;20267;-56
2021/05/10 02:13:01;;;;;;;4.20;1.40;;;19.50;99.90;;;;;;5027237;28;20614;-55
2021/05/10 02:15:30;;;;;;;2.00;1.40;;;19.50;99.90;;;;;;5027791;28;20244;-57
2021/05/10 02:17:58;;;;;;;2.33;1.40;;;19.60;99.90;;;;;;5027664;28;20289;-57
2021/05/10 02:20:27;;;;;;;3.03;1.43;;;19.60;99.90;;;;;;5026731;28;20244;-57
2021/05/10 02:22:56;;;;;;;3.80;1.90;;;19.50;99.90;;;;;;5026894;28;20236;-56
2021/05/10 02:25:26;;;;;;;2.63;1.73;;;19.50;99.90;;;;;;5024370;28;20266;-58
2021/05/10 02:27:55;;;;;;;3.10;1.43;;;19.40;99.90;;;;;;5019267;28;20586;-56
2021/05/10 02:30:25;;;;;;;1.87;1.70;;;19.40;99.90;;;;;;5026742;28;20335;-57
2021/05/10 02:32:54;;;;;;;2.63;1.50;;;19.40;99.90;;;;;;5026819;28;20251;-58
2021/05/10 02:35:22;;;;;;;2.03;1.57;;;19.40;99.90;;;;;;5027010;28;20321;-57
2021/05/10 02:37:51;;;;;;;2.30;1.60;;;19.40;99.90;;;;;;5027575;28;20431;-57
2021/05/10 02:40:19;;;;;;;3.40;1.70;;;19.40;99.90;;;;;;5026528;28;20240;-57
2021/05/10 02:42:47;;;;;;;2.07;1.57;;;19.40;99.90;;;;;;5026779;28;20236;-56
2021/05/10 02:45:17;;;;;;;2.20;1.77;;;19.30;99.90;;;;;;5031631;28;20580;-55
2021/05/10 02:47:46;;;;;;;3.23;1.77;;;19.30;99.90;;;;;;5030725;28;20240;-58
2021/05/10 02:50:17;;;;;;;1.60;1.47;;;19.30;99.90;;;;;;5030248;28;20581;-56
2021/05/10 02:52:45;;;;;;;2.90;1.93;;;19.30;99.90;;;;;;5030384;28;20246;-55
2021/05/10 02:55:13;;;;;;;2.53;1.53;;;19.30;99.90;;;;;;5030796;28;20246;-57
2021/05/10 02:57:42;;;;;;;2.97;1.60;;;19.30;99.90;;;;;;5030646;28;20246;-54
2021/05/10 03:00:13;;;;;;;3.70;1.90;;;19.30;99.90;;;;;;5030336;28;20248;-56
2021/05/10 03:02:42;;;;;;;5.73;1.80;;;19.30;99.90;;;;;;5030852;28;20239;-58
2021/05/10 03:05:12;;;;;;;3.20;1.70;;;19.30;99.90;;;;;;5031352;28;20235;-57
2021/05/10 03:07:40;;;;;;;2.90;1.87;;;19.30;99.90;;;;;;5031305;28;20242;-58
2021/05/10 03:10:10;;;;;;;1.97;1.60;;;19.30;99.90;;;;;;5029387;28;20239;-58
2021/05/10 03:12:38;;;;;;;3.07;1.80;;;19.20;99.90;;;;;;5028409;28;20756;-57
2021/05/10 03:15:08;;;;;;;3.37;1.80;;;19.20;99.90;;;;;;5028956;28;20243;-55
2021/05/10 03:17:36;;;;;;;2.03;1.70;;;19.20;99.90;;;;;;5028749;28;20232;-55
2021/05/10 03:20:06;;;;;;;2.00;1.80;;;19.10;99.90;;;;;;5028293;28;20254;-57
2021/05/10 03:22:34;;;;;;;1.87;1.70;;;19.00;99.90;;;;;;5027555;28;20247;-57
2021/05/10 03:25:01;;;;;;;3.03;1.70;;;19.00;99.90;;;;;;5024695;28;20373;-56
2021/05/10 03:27:33;;;;;;;2.50;1.67;;;18.90;99.90;;;;;;5028806;28;20243;-56
2021/05/10 03:30:01;;;;;;;3.63;2.10;;;18.90;99.90;;;;;;5029487;28;20263;-57
2021/05/10 03:32:28;;;;;;;2.43;1.80;;;18.90;99.90;;;;;;5028917;28;20257;-57
2021/05/10 03:34:56;;;;;;;3.23;1.90;;;18.80;99.90;;;;;;5030480;28;20271;-57
2021/05/10 03:37:24;;;;;;;3.07;1.80;;;18.80;99.90;;;;;;5029927;28;20243;-55
2021/05/10 03:39:52;;;;;;;2.33;1.73;;;18.70;99.90;;;;;;5028758;28;20235;-57
2021/05/10 03:42:19;;;;;;;2.53;2.03;;;18.70;99.90;;;;;;5029324;28;20243;-56
2021/05/10 03:44:46;;;;;;;6.13;2.00;;;18.60;99.90;;;;;;5030103;28;20270;-57
2021/05/10 03:47:14;;;;;;;1.57;1.47;;;18.60;99.90;;;;;;5030101;28;20594;-57
2021/05/10 03:49:42;;;;;;;3.63;1.70;;;18.60;99.90;;;;;;5029353;28;20621;-57
2021/05/10 03:52:09;;;;;;;3.53;2.07;;;18.50;99.90;;;;;;5029491;28;20749;-55
2021/05/10 03:54:38;;;;;;;2.17;1.70;;;18.50;99.90;;;;;;5029883;28;20245;-53
2021/05/10 03:57:05;;;;;;;2.40;1.90;;;18.50;99.90;;;;;;5030465;28;20475;-57
2021/05/10 03:59:33;;;;;;;2.00;1.63;;;18.50;99.90;;;;;;5029310;28;20235;-53
2021/05/10 04:02:02;;;;;;;2.87;1.87;;;18.50;99.90;;;;;;5028911;28;20248;-56
2021/05/10 04:04:37;;;;;;;1.67;1.57;;;18.50;99.90;;;;;;5029799;28;20297;-57
2021/05/10 04:07:17;;;;;;;2.20;1.80;;;18.50;99.90;;;;;;5029471;28;20755;-55
2021/05/10 04:15:27;;;;;;;2.70;1.70;;;18.50;99.90;;;;;;5044261;28;20240;-58
2021/05/10 04:17:54;;;;;;;2.27;1.60;;;18.60;99.90;;;;;;5029731;28;20661;-57
2021/05/10 04:20:22;;;;;;;3.30;2.10;;;18.60;99.90;;;;;;5028414;28;20315;-58
2021/05/10 04:22:49;;;;;;;2.60;1.70;;;18.60;99.90;;;;;;5024478;28;20318;-57
2021/05/10 04:25:17;;;;;;;1.97;1.73;;;18.70;99.90;;;;;;5029532;28;20321;-56
2021/05/10 04:27:46;;;;;;;3.93;1.97;;;18.80;99.90;;;;;;5029029;28;20610;-58
2021/05/10 04:30:14;;;;;;;3.67;1.70;;;18.80;99.90;;;;;;5028719;28;20250;-57
2021/05/10 04:32:42;;;;;;;4.03;1.70;;;18.80;99.90;;;;;;5028722;28;20599;-56
2021/05/10 04:35:11;;;;;;;2.63;1.63;;;18.90;99.90;;;;;;5029579;28;20248;-57
2021/05/10 04:37:38;;;;;;;3.67;1.70;;;18.90;99.90;;;;;;5029191;28;20231;-54
2021/05/10 04:40:07;;;;;;;2.23;1.60;;;19.00;99.90;;;;;;5028602;28;20595;-58
2021/05/10 04:42:35;;;;;;;3.33;1.93;;;19.00;99.90;;;;;;5028149;28;20241;-57
2021/05/10 04:45:04;;;;;;;2.23;1.80;;;19.00;99.90;;;;;;5029351;28;20322;-58
2021/05/10 04:47:36;;;;;;;4.17;2.00;;;19.00;99.90;;;;;;5028815;28;20235;-56
2021/05/10 04:50:06;;;;;;;3.07;1.80;;;19.00;99.90;;;;;;5028142;28;20237;-57
2021/05/10 04:52:33;;;;;;;4.47;2.03;;;19.00;99.90;;;;;;5028792;28;20240;-57
2021/05/10 04:55:01;;;;;;;3.23;1.80;;;19.00;99.90;;;;;;5028518;28;20594;-57
2021/05/10 04:57:28;;;;;;;4.67;1.80;;;19.00;99.90;;;;;;5028401;28;20253;-58
2021/05/10 04:59:56;;;;;;;2.13;1.50;;;19.00;99.90;;;;;;5027456;28;20246;-56
2021/05/10 05:02:24;;;;;;;3.17;1.83;;;19.00;99.90;;;;;;5027652;28;20249;-56
2021/05/10 05:04:52;;;;;;;3.17;1.80;;;19.00;99.90;;;;;;5028546;28;20242;-57
2021/05/10 05:07:19;;;;;;;3.20;2.00;;;19.00;99.90;;;;;;5027806;28;20244;-57
2021/05/10 05:09:47;;;;;;;3.20;1.83;;;19.00;99.90;;;;;;5027174;28;20239;-59
2021/05/10 05:12:14;;;;;;;4.77;1.80;;;19.10;99.90;;;;;;5026988;28;20256;-58
2021/05/10 05:14:41;;;;;;;3.80;2.03;;;19.10;99.90;;;;;;5028294;28;20262;-57
2021/05/10 05:17:10;;;;;;;2.97;1.63;;;19.10;99.90;;;;;;5028253;28;20595;-58
2021/05/10 05:19:37;;;;;;;5.50;2.27;;;19.10;99.90;;;;;;5024562;28;20239;-56
2021/05/10 05:22:05;;;;;;;2.80;1.70;;;19.10;99.90;;;;;;5024037;28;20243;-58
2021/05/10 05:24:32;;;;;;;1.90;1.70;;;19.10;99.90;;;;;;5026568;28;20716;-57
2021/05/10 05:26:59;;;;;;;3.10;1.80;;;19.00;99.90;;;;;;5028159;28;20629;-59
2021/05/10 05:29:26;;;;;;;2.43;1.63;;;19.00;99.90;;;;;;5027301;28;20238;-57
2021/05/10 05:31:54;;;;;;;5.63;2.00;;;19.00;99.90;;;;;;5027374;28;20236;-54
2021/05/10 05:34:23;;;;;;;4.67;1.90;;;19.00;99.90;;;;;;5027329;28;20229;-56
2021/05/10 05:36:50;;;;;;;2.53;1.63;;;19.10;99.90;;;;;;5027210;28;20641;-57
2021/05/10 05:39:17;;;;;;;3.37;1.90;;;19.10;99.90;;;;;;5025185;28;20735;-58
2021/05/10 05:41:44;;;;;;;4.07;1.80;;;19.10;99.90;;;;;;5023914;28;20255;-56
2021/05/10 05:44:12;;;;;;;3.57;1.80;;;19.10;99.90;;;;;;5023997;28;20241;-57
2021/05/10 05:46:42;;;;;;;1.67;1.40;;;19.20;99.90;;;;;;5025884;28;20706;-59
2021/05/10 05:49:10;;;;;;;3.73;1.70;;;19.20;99.90;;;;;;5025334;28;20244;-58
2021/05/10 05:51:38;;;;;;;2.43;1.63;;;19.20;99.90;;;;;;5025872;28;20587;-57
2021/05/10 05:54:07;;;;;;;3.93;1.67;;;19.20;99.90;;;;;;5026217;28;20248;-58
2021/05/10 05:56:36;;;;;;;6.20;1.73;;;19.20;99.90;;;;;;5027827;28;20786;-58
2021/05/10 05:59:04;;;;;;;3.67;1.70;;;19.20;99.90;;;;;;5027317;28;20644;-56
2021/05/10 06:01:32;;;;;;;3.73;1.80;;;19.30;99.90;;;;;;5041461;28;20236;-58
2021/05/10 06:03:59;;;;;;;4.20;1.67;;;19.30;99.90;;;;;;5027155;28;20675;-59
2021/05/10 06:06:27;;;;;;;2.13;1.63;;;19.40;99.90;;;;;;5027333;28;20269;-58
2021/05/10 06:08:56;;;;;;;2.73;1.77;;;19.40;99.90;;;;;;5027338;28;20250;-57
2021/05/10 06:11:23;;;;;;;4.80;1.77;;;19.50;99.90;;;;;;5027503;28;20259;-58
2021/05/10 06:13:50;;;;;;;7.20;2.13;;;19.50;99.90;;;;;;5027155;28;20235;-59
2021/05/10 06:16:18;;;;;;;4.97;1.90;;;19.50;99.90;;;;;;5024940;28;20240;-57
2021/05/10 06:18:45;;;;;;;8.40;2.53;;;19.60;99.90;;;;;;5027007;28;20700;-56
2021/05/10 06:21:12;;;;;;;4.87;2.30;;;19.70;99.90;;;;;;5031311;28;20324;-56
2021/05/10 06:23:40;;;;;;;4.93;2.00;;;19.80;99.90;;;;;;5031231;28;20596;-56
2021/05/10 06:26:08;;;;;;;5.70;2.00;;;19.80;99.90;;;;;;5032062;28;20315;-54
2021/05/10 06:28:35;;;;;;;2.77;1.80;;;19.90;99.90;;;;;;5030887;28;20282;-58
2021/05/10 06:31:04;;;;;;;3.40;1.80;;;20.00;99.90;;;;;;5030785;28;20243;-57
2021/05/10 06:33:32;;;;;;;3.63;1.80;;;20.10;99.90;;;;;;5030949;28;20326;-58
2021/05/10 06:35:59;;;;;;;5.00;2.10;;;20.10;99.90;;;;;;5031459;28;20243;-59
2021/05/10 06:38:26;;;;;;;5.60;2.00;;;20.20;99.90;;;;;;5030777;28;20244;-57
2021/05/10 06:40:54;;;;;;;4.90;2.20;;;20.20;99.90;;;;;;5030938;28;20237;-59
2021/05/10 06:43:22;;;;;;;5.63;1.83;;;20.30;99.90;;;;;;5030808;28;20770;-59
2021/05/10 06:45:49;;;;;;;5.73;1.80;;;20.40;99.90;;;;;;5031202;28;20258;-57
2021/05/10 06:48:27;;;;;;;3.33;1.80;;;20.50;99.90;;;;;;5030777;28;20247;-58
2021/05/10 06:50:54;;;;;;;4.23;1.80;;;20.60;99.90;;;;;;5030766;28;20323;-57
2021/05/10 06:53:22;;;;;;;2.53;1.70;;;20.80;99.90;;;;;;5029897;28;20244;-58
2021/05/10 06:55:51;;;;;;;2.77;1.50;;;21.10;99.90;;;;;;5029834;28;20328;-58
2021/05/10 06:58:19;;;;;;;3.43;1.77;;;21.40;99.90;;;;;;5029325;28;20243;-56
2021/05/10 07:00:51;;;;;;;4.50;2.00;;;21.80;99.90;;;;;;5029272;28;20244;-58
2021/05/10 07:03:19;;;;;;;1.70;1.60;;;22.00;99.90;;;;;;5044799;28;20244;-58
2021/05/10 07:05:47;;;;;;;2.23;1.40;;;22.10;99.90;;;;;;5029596;28;20236;-57
2021/05/10 07:08:16;;;;;;;3.63;2.10;;;22.10;99.90;;;;;;5029021;28;20646;-58
2021/05/10 07:10:47;;;;;;;2.83;1.70;;;22.00;99.90;;;;;;5028925;28;20735;-58
2021/05/10 07:13:15;;;;;;;2.50;1.50;;;21.90;99.90;;;;;;5027835;28;20771;-57
2021/05/10 07:15:43;;;;;;;3.20;1.90;;;21.80;99.90;;;;;;5027718;28;20236;-58
2021/05/10 07:18:13;;;;;;;2.70;1.83;;;21.80;99.90;;;;;;5028877;28;20243;-58
2021/05/10 07:20:43;;;;;;;2.60;1.77;;;21.80;99.90;;;;;;5027678;28;20544;-55
2021/05/10 07:23:12;;;;;;;4.30;1.67;;;21.80;99.90;;;;;;5029017;28;20604;-58
2021/05/10 07:25:43;;;;;;;4.67;1.70;;;22.10;99.90;;;;;;5029506;28;20239;-57
2021/05/10 07:28:10;;;;;;;3.63;1.80;;;22.70;99.90;;;;;;5029515;28;20882;-56
2021/05/10 07:30:39;;;;;;;2.03;1.57;;;23.20;99.90;;;;;;5026999;28;20310;-56
2021/05/10 07:33:07;;;;;;;2.97;1.77;;;23.50;99.90;;;;;;5028826;28;20630;-56
2021/05/10 07:35:36;;;;;;;2.37;1.90;;;23.70;99.90;;;;;;5028869;28;20238;-57
2021/05/10 07:38:04;;;;;;;2.40;1.70;;;23.60;99.90;;;;;;5028103;28;20307;-55
2021/05/10 07:40:31;;;;;;;3.63;1.80;;;24.00;99.90;;;;;;5029873;28;20240;-56
2021/05/10 07:42:59;;;;;;;2.90;1.50;;;24.30;99.90;;;;;;5030074;28;20315;-57
2021/05/10 07:45:28;;;;;;;2.50;1.60;;;24.50;99.90;;;;;;5045173;28;20483;-55
2021/05/10 07:47:56;;;;;;;2.37;1.70;;;24.30;99.90;;;;;;5029975;28;20238;-58
2021/05/10 07:50:26;;;;;;;2.27;1.80;;;24.00;99.90;;;;;;5028119;28;20275;-58
2021/05/10 07:52:54;;;;;;;2.97;1.90;;;23.70;99.90;;;;;;5029477;28;20313;-59
2021/05/10 07:55:23;;;;;;;1.53;1.43;;;23.60;99.90;;;;;;5029857;28;20516;-58
2021/05/10 07:57:53;;;;;;;3.23;1.73;;;23.50;99.90;;;;;;5030049;28;20591;-57
2021/05/10 08:00:27;;;;;;;2.80;2.00;;;23.50;99.90;;;;;;5028576;28;20241;-54
2021/05/10 08:02:54;;;;;;;7.13;2.00;;;23.90;99.90;;;;;;5029598;28;20951;-58
2021/05/10 08:05:22;;;;;;;5.10;1.80;;;24.10;99.90;;;;;;5030155;28;20243;-58
2021/05/10 08:07:50;;;;;;;3.70;1.50;;;24.10;99.90;;;;;;5029862;28;20233;-58
2021/05/10 08:10:18;;;;;;;2.57;1.70;;;24.30;99.90;;;;;;5029264;28;20237;-56
2021/05/10 08:12:45;;;;;;;5.83;1.90;;;24.80;99.90;;;;;;5022741;28;20697;-57
2021/05/10 08:15:13;;;;;;;3.23;2.00;;;25.10;99.90;;;;;;5028726;28;20471;-58
2021/05/10 08:17:40;;;;;;;3.30;1.83;;;24.80;99.90;;;;;;5029469;28;20242;-57
2021/05/10 08:20:09;;;;;;;6.53;2.70;;;24.80;99.90;;;;;;5029112;28;20620;-56
2021/05/10 08:22:37;;;;;;;2.53;1.70;;;24.50;99.90;;;;;;5042409;28;20697;-52
2021/05/10 08:25:06;;;;;;;4.47;1.93;;;24.40;99.90;;;;;;5028274;28;20281;-56
2021/05/10 08:27:34;;;;;;;1.77;1.50;;;24.30;99.90;;;;;;5027309;28;20246;-55
2021/05/10 08:30:04;;;;;;;2.93;1.60;;;24.40;99.90;;;;;;5028616;28;20245;-56
2021/05/10 08:32:32;;;;;;;2.50;1.80;;;24.30;99.90;;;;;;5028322;28;20230;-56
2021/05/10 08:35:00;;;;;;;2.60;1.90;;;24.20;99.90;;;;;;5028682;28;20259;-56
2021/05/10 08:37:29;;;;;;;2.43;1.57;;;24.00;99.90;;;;;;5028025;28;20775;-54
2021/05/10 08:39:57;;;;;;;3.10;1.80;;;23.90;99.90;;;;;;5028308;28;20237;-53
2021/05/10 08:42:25;;;;;;;4.07;1.73;;;24.10;99.90;;;;;;5026678;28;20617;-56
2021/05/10 08:44:53;;;;;;;3.87;1.67;;;24.10;99.90;;;;;;5027531;28;20783;-56
2021/05/10 08:47:21;;;;;;;2.87;1.40;;;24.20;99.90;;;;;;5027796;28;20646;-55
2021/05/10 08:49:50;;;;;;;4.10;1.70;;;24.60;99.90;;;;;;5026808;28;20712;-57
2021/05/10 08:52:17;;;;;;;2.40;1.60;;;24.70;99.90;;;;;;5026316;28;20242;-55
2021/05/10 08:54:45;;;;;;;1.87;1.53;;;24.70;99.90;;;;;;5022810;28;20243;-55
2021/05/10 08:57:12;;;;;;;2.13;1.67;;;24.80;99.90;;;;;;5027201;28;20238;-55
2021/05/10 08:59:43;;;;;;;3.63;1.63;;;24.80;99.80;;;;;;5028294;28;20242;-55
2021/05/10 09:02:12;;;;;;;3.90;1.77;;;24.70;99.10;;;;;;5027266;28;20247;-52
2021/05/10 09:04:42;;;;;;;5.23;1.60;;;24.60;98.60;;;;;;5028742;28;20236;-55
2021/05/10 09:07:16;;;;;;;4.20;1.80;;;24.50;99.50;;;;;;5027959;28;20638;-55
2021/05/10 09:09:52;;;;;;;2.30;1.63;;;24.60;99.40;;;;;;5025179;28;20330;-56
2021/05/10 09:12:22;;;;;;;6.33;1.60;;;25.00;99.10;;;;;;5026953;28;20297;-55
2021/05/10 09:14:51;;;;;;;3.37;1.37;;;25.40;98.20;;;;;;5027447;28;20313;-54
2021/05/10 09:17:19;;;;;;;3.73;1.80;;;25.90;97.80;;;;;;5028094;28;20239;-55
2021/05/10 09:19:54;;;;;;;3.43;1.50;;;25.60;97.70;;;;;;5042367;28;20763;-55
2021/05/10 09:22:22;;;;;;;2.73;1.73;;;25.10;97.40;;;;;;5027540;28;20273;-55
2021/05/10 09:24:52;;;;;;;4.30;1.90;;;24.70;98.60;;;;;;5023103;28;20322;-56
2021/05/10 09:27:25;;;;;;;1.60;1.50;;;24.70;98.80;;;;;;5029552;28;20717;-55
2021/05/10 09:30:14;;;;;;;5.03;1.90;;;24.60;98.80;;;;;;5027871;28;20364;-56
2021/05/10 09:32:48;;;;;;;3.17;1.77;;;24.60;99.10;;;;;;5025182;28;20245;-57
2021/05/10 09:35:23;;;;;;;6.17;1.97;;;24.40;99.00;;;;;;5028094;28;20243;-56
2021/05/10 09:38:03;;;;;;;6.63;1.83;;;24.30;99.40;;;;;;5022739;28;20593;-54
2021/05/10 09:40:43;;;;;;;4.47;1.73;;;24.30;99.80;;;;;;5043197;28;20253;-53
2021/05/10 09:43:12;;;;;;;3.17;1.80;;;24.20;99.70;;;;;;5027910;28;20245;-56
2021/05/10 09:45:48;;;;;;;3.17;1.70;;;24.10;99.90;;;;;;5027836;28;20268;-56
2021/05/10 09:48:26;;;;;;;4.73;1.73;;;24.00;99.90;;;;;;5028671;28;20240;-55
2021/05/10 09:50:58;;;;;;;4.63;2.00;;;23.80;99.90;;;;;;5041199;28;20230;-54
2021/05/10 09:53:39;;;;;;;4.30;2.03;;;23.70;99.90;;;;;;5026609;28;20322;-55
2021/05/10 09:56:11;;;;;;;3.73;1.90;;;23.60;99.90;;;;;;5030672;28;20745;-56
2021/05/10 09:58:42;;;;;;;6.07;2.23;;;23.50;99.90;;;;;;5026802;28;20235;-57
2021/05/10 10:01:11;;;;;;;2.50;1.70;;;23.40;99.90;;;;;;5028434;28;20739;-56
2021/05/10 10:03:42;;;;;;;3.83;1.80;;;23.30;99.90;;;;;;5027303;28;20649;-57
2021/05/10 10:06:12;;;;;;;4.20;1.50;;;23.20;99.90;;;;;;5020633;28;20242;-54
2021/05/10 10:08:42;;;;;;;2.60;1.87;;;23.30;99.90;;;;;;5023890;28;20273;-55
2021/05/10 10:11:15;;;;;;;2.97;1.60;;;23.20;99.90;;;;;;5026645;28;20242;-57
2021/05/10 10:13:44;;;;;;;4.43;1.87;;;23.20;99.90;;;;;;5025805;28;20716;-53
2021/05/10 10:16:19;;;;;;;6.60;1.95;;;23.10;99.90;;;;;;5025528;28;20448;-56
2021/05/10 10:18:51;;;;;;;4.03;1.83;;;23.00;99.90;;;;;;5026717;28;20236;-57
2021/05/10 10:21:21;;;;;;;5.20;1.90;;;23.00;99.90;;;;;;5025970;28;20331;-56
2021/05/10 10:23:54;;;;;;;4.47;1.90;;;23.20;99.90;;;;;;5028949;28;20320;-55
2021/05/10 10:26:43;;;;;;;5.07;1.70;;;23.50;99.90;;;;;;5029081;28;20238;-53
2021/05/10 10:29:14;;;;;;;4.47;2.00;;;24.10;99.90;;;;;;5026299;28;20241;-54
2021/05/10 10:31:46;;;;;;;4.90;2.13;;;24.80;99.90;;;;;;5025575;28;20788;-55
2021/05/10 10:34:25;;;;;;;3.60;1.70;;;25.40;99.90;;;;;;5026014;28;20790;-55
2021/05/10 10:36:57;;;;;;;3.83;1.90;;;25.90;99.90;;;;;;5029313;28;20274;-54
2021/05/10 10:39:27;;;;;;;4.23;2.00;;;25.90;99.40;;;;;;5024538;28;20319;-56
2021/05/10 10:41:57;;;;;;;7.83;2.10;;;25.90;98.50;;;;;;5023778;28;20237;-55
2021/05/10 10:44:31;;;;;;;3.20;1.73;;;25.70;98.40;;;;;;5025415;28;20240;-56
2021/05/10 10:46:59;;;;;;;5.03;1.70;;;25.30;98.90;;;;;;5026047;28;20238;-56
2021/05/10 10:49:33;;;;;;;7.23;2.33;;;25.10;99.30;;;;;;5025013;28;20236;-56
2021/05/10 10:52:01;;;;;;;4.93;1.73;;;25.00;99.90;;;;;;5027659;28;20907;-53
2021/05/10 10:54:30;;;;;;;2.10;1.70;;;25.20;99.70;;;;;;5025539;28;20293;-55
2021/05/10 10:57:00;;;;;;;3.73;1.93;;;25.70;99.40;;;;;;5024760;28;20393;-56
2021/05/10 10:59:35;;;;;;;2.83;1.60;;;26.50;98.90;;;;;;5027357;28;20248;-54
2021/05/10 11:02:23;;;;;;;3.17;1.80;;;27.00;97.10;;;;;;5027668;28;20243;-55
2021/05/10 11:05:12;;;;;;;5.10;1.60;;;27.50;96.20;;;;;;5029407;28;20228;-54
2021/05/10 11:08:01;;;;;;;3.90;1.90;;;27.40;95.10;;;;;;5032285;28;20277;-56
2021/05/10 11:10:47;;;;;;;3.33;2.00;;;27.20;95.50;;;;;;5032262;28;20239;-56
2021/05/10 11:13:39;;;;;;;2.93;1.60;;;27.00;95.90;;;;;;5027209;28;20268;-55
2021/05/10 11:16:14;;;;;;;4.03;1.87;;;27.10;95.70;;;;;;5028614;28;20244;-54
2021/05/10 11:18:46;;;;;;;3.40;1.60;;;27.80;95.50;;;;;;5040986;28;20771;-56
2021/05/10 11:21:40;;;;;;;5.30;1.80;;;28.20;94.30;;;;;;5040452;28;20291;-54
2021/05/10 11:24:11;;;;;;;3.40;1.70;;;27.30;94.60;;;;;;5025596;28;20250;-56
2021/05/10 11:26:45;;;;;;;5.17;1.70;;;26.90;95.30;;;;;;5024365;28;20232;-56
2021/05/10 11:29:45;;;;;;;2.70;1.80;;;26.70;96.00;;;;;;5026105;28;20259;-54
2021/05/10 11:32:31;;;;;;;4.47;1.80;;;26.50;96.70;;;;;;5026515;28;20244;-56
2021/05/10 11:35:27;;;;;;;3.40;1.83;;;26.50;97.10;;;;;;5027039;28;20228;-55
2021/05/10 11:38:07;;;;;;;3.40;1.60;;;26.40;96.70;;;;;;5025124;28;20715;-55
2021/05/10 11:40:36;;;;;;;3.20;1.60;;;26.30;96.90;;;;;;5032107;28;20240;-56
2021/05/10 11:43:20;;;;;;;2.73;1.60;;;26.40;97.00;;;;;;5028986;28;20247;-56
2021/05/10 11:45:47;;;;;;;3.13;1.77;;;26.40;96.50;;;;;;5026421;28;20234;-56
2021/05/10 11:48:15;;;;;;;3.27;1.67;;;26.30;96.30;;;;;;5029608;28;20242;-56
2021/05/10 11:50:48;;;;;;;5.50;1.67;;;26.50;96.60;;;;;;5029948;28;20262;-55
2021/05/10 11:53:27;;;;;;;4.23;1.77;;;26.70;96.70;;;;;;5033923;28;20667;-55
2021/05/10 11:56:02;;;;;;;4.00;1.67;;;27.30;96.90;;;;;;5027443;28;20264;-56
2021/05/10 11:58:48;;;;;;;2.43;1.80;;;27.50;96.30;;;;;;5025730;28;20259;-55
2021/05/10 12:01:32;;;;;;;3.63;1.63;;;27.40;95.50;;;;;;5023200;28;20634;-56
2021/05/10 12:04:00;;;;;;;4.33;1.80;;;27.00;95.60;;;;;;5037214;28;20294;-55
2021/05/10 12:06:31;;;;;;;4.10;1.93;;;26.80;96.50;;;;;;5027029;28;20274;-56
2021/05/10 12:08:59;;;;;;;3.90;1.87;;;26.50;96.50;;;;;;5027992;28;20247;-55
2021/05/10 12:11:28;;;;;;;2.67;1.60;;;26.20;97.00;;;;;;5028034;28;20249;-55
2021/05/10 12:13:56;;;;;;;4.10;1.80;;;25.90;97.60;;;;;;5029392;28;20286;-55
2021/05/10 12:16:23;;;;;;;4.97;1.90;;;25.70;98.30;;;;;;5027910;28;20249;-56
2021/05/10 12:18:55;;;;;;;2.60;1.57;;;25.50;98.30;;;;;;5029106;28;20248;-56
2021/05/10 12:21:22;;;;;;;3.20;1.80;;;25.30;99.30;;;;;;5029609;28;20290;-55
2021/05/10 12:23:50;;;;;;;2.40;1.63;;;25.00;99.90;;;;;;5029173;28;20323;-55
2021/05/10 12:26:18;;;;;;;6.70;1.77;;;24.70;99.90;;;;;;5029694;28;20323;-56
2021/05/10 12:28:45;;;;;;;4.43;1.60;;;24.60;99.90;;;;;;5028174;28;20948;-53
2021/05/10 12:31:13;;;;;;;6.50;1.50;;;24.80;99.90;;;;;;5026137;28;20246;-55
2021/05/10 12:33:46;;;;;;;4.73;1.70;;;25.00;99.90;;;;;;5027730;28;20285;-57
2021/05/10 12:36:13;;;;;;;3.93;1.53;;;25.30;99.90;;;;;;5024828;28;20325;-55
2021/05/10 12:38:43;;;;;;;6.00;1.60;;;25.40;99.90;;;;;;5031566;28;20593;-56
2021/05/10 12:41:21;;;;;;;4.90;1.80;;;25.60;99.90;;;;;;5028881;28;20242;-55
2021/05/10 12:43:52;;;;;;;5.43;1.50;;;25.50;99.90;;;;;;5027627;28;20243;-55
2021/05/10 12:46:23;;;;;;;9.07;2.23;;;25.20;99.90;;;;;;5029793;28;20597;-55
2021/05/10 12:48:51;;;;;;;7.03;1.70;;;25.00;99.90;;;;;;5028845;28;20246;-55
2021/05/10 12:51:21;;;;;;;5.13;1.80;;;25.20;99.90;;;;;;5026979;28;20925;-55
2021/05/10 12:53:53;;;;;;;1.53;1.27;;;25.30;99.90;;;;;;5026224;28;20772;-52
2021/05/10 12:56:23;;;;;;;7.77;1.50;;;25.30;99.90;;;;;;5026494;28;20738;-54
2021/05/10 12:58:52;;;;;;;4.93;1.40;;;25.50;99.90;;;;;;5027471;28;20646;-55
2021/05/10 13:01:21;;;;;;;4.00;1.47;;;25.40;99.90;;;;;;5021374;28;20806;-56
2021/05/10 13:03:58;;;;;;;3.37;1.40;;;25.30;99.90;;;;;;5023935;28;20495;-56
2021/05/10 13:06:28;;;;;;;2.73;1.30;;;25.30;99.90;;;;;;5025406;28;20647;-56